Time;durP1;ratioP1;P1;durP2;ratioP2;P2;SDS_P1;SDS_P2;PMS_P1;PMS_P2;Temp;Humidity;BMP_temperature;BMP_pressure;BME280_temperature;BME280_humidity;BME280_pressure;Samples;Min_cycle;Max_cycle;Signal;HPM_P1;HPM_P2
2021/09/23 00:01:44;;;;;;;28.40;22.10;;;13.50;99.90;;;;;;5085861;28;20570;-36
2021/09/23 00:06:41;;;;;;;30.10;21.27;;;13.40;99.90;;;;;;5086267;28;20230;-36
2021/09/23 00:09:07;;;;;;;31.50;23.03;;;13.40;99.90;;;;;;5085525;28;20470;-37
2021/09/23 00:11:33;;;;;;;29.53;23.30;;;13.50;99.90;;;;;;5086456;28;20199;-36
2021/09/23 00:13:59;;;;;;;28.87;23.30;;;13.40;99.90;;;;;;5077590;28;20434;-37
2021/09/23 00:16:25;;;;;;;28.00;22.07;;;13.30;99.90;;;;;;5084042;28;20675;-37
2021/09/23 00:18:51;;;;;;;30.40;22.97;;;13.40;99.90;;;;;;5085811;28;20219;-36
2021/09/23 00:21:18;;;;;;;29.93;21.17;;;13.40;99.90;;;;;;5085552;28;20422;-37
2021/09/23 00:23:45;;;;;;;29.50;22.60;;;13.40;99.90;;;;;;5086139;28;20428;-36
2021/09/23 00:26:11;;;;;;;28.40;22.40;;;13.40;99.90;;;;;;5085820;28;20503;-37
2021/09/23 00:28:37;;;;;;;24.30;20.77;;;13.40;99.90;;;;;;5074042;28;20443;-37
2021/09/23 00:31:03;;;;;;;28.30;21.70;;;13.40;99.90;;;;;;5084871;28;20483;-38
2021/09/23 00:33:29;;;;;;;30.37;21.80;;;13.40;99.90;;;;;;5085671;28;20680;-37
2021/09/23 00:35:54;;;;;;;34.60;23.40;;;13.40;99.90;;;;;;5084123;28;20473;-37
2021/09/23 00:38:20;;;;;;;28.03;21.40;;;13.40;99.90;;;;;;5086203;28;20196;-37
2021/09/23 00:40:46;;;;;;;29.67;22.33;;;13.40;99.90;;;;;;5084895;28;20202;-37
2021/09/23 00:43:12;;;;;;;24.77;19.93;;;13.40;99.90;;;;;;5078623;28;20658;-37
2021/09/23 00:45:37;;;;;;;26.50;20.10;;;13.50;99.90;;;;;;5080839;28;20181;-36
2021/09/23 00:48:03;;;;;;;27.83;21.70;;;13.40;99.90;;;;;;5085628;28;20933;-36
2021/09/23 00:50:29;;;;;;;26.17;21.67;;;13.40;99.90;;;;;;5085224;28;20192;-36
2021/09/23 00:52:55;;;;;;;31.40;23.90;;;13.50;99.90;;;;;;5084048;28;20700;-36
2021/09/23 00:55:22;;;;;;;31.50;23.80;;;13.50;99.90;;;;;;5086015;28;20455;-38
2021/09/23 00:57:48;;;;;;;33.70;23.40;;;13.40;99.90;;;;;;5081069;28;20839;-37
2021/09/23 01:00:15;;;;;;;30.10;23.73;;;13.50;99.90;;;;;;5079551;28;20422;-36
2021/09/23 01:02:41;;;;;;;28.77;22.33;;;13.50;99.90;;;;;;5085588;28;20250;-37
2021/09/23 01:05:07;;;;;;;28.00;23.30;;;13.50;99.90;;;;;;5085666;28;20987;-37
2021/09/23 01:07:33;;;;;;;29.17;22.77;;;13.50;99.90;;;;;;5084222;28;20208;-37
2021/09/23 01:09:59;;;;;;;28.80;23.33;;;13.50;99.90;;;;;;5085056;28;21034;-37
2021/09/23 01:12:26;;;;;;;26.83;21.80;;;13.50;99.90;;;;;;5085299;28;20889;-37
2021/09/23 01:14:53;;;;;;;26.93;20.90;;;13.50;99.90;;;;;;5077325;28;20680;-36
2021/09/23 01:17:19;;;;;;;27.07;21.30;;;13.50;99.90;;;;;;5085780;28;20580;-37
2021/09/23 01:19:45;;;;;;;29.40;21.00;;;13.50;99.90;;;;;;5088533;28;21007;-37
2021/09/23 01:22:13;;;;;;;25.60;20.70;;;13.50;99.90;;;;;;5089278;28;20176;-36
2021/09/23 01:24:40;;;;;;;24.47;19.40;;;13.50;99.90;;;;;;5089283;28;20509;-37
2021/09/23 01:27:07;;;;;;;22.60;18.83;;;13.50;99.90;;;;;;5088864;28;20466;-36
2021/09/23 01:29:34;;;;;;;22.20;18.73;;;13.50;99.90;;;;;;5076363;28;20945;-36
2021/09/23 01:32:01;;;;;;;21.07;18.23;;;13.50;99.90;;;;;;5088958;28;20497;-36
2021/09/23 01:34:28;;;;;;;26.43;21.07;;;13.50;99.90;;;;;;5089044;28;20434;-37
2021/09/23 01:36:54;;;;;;;23.13;18.90;;;13.50;99.90;;;;;;5088710;28;20934;-37
2021/09/23 01:39:21;;;;;;;22.40;18.80;;;13.60;99.90;;;;;;5088187;28;20422;-37
2021/09/23 01:41:47;;;;;;;22.50;18.87;;;13.60;99.90;;;;;;5088903;28;20418;-37
2021/09/23 01:44:13;;;;;;;22.03;18.63;;;13.60;99.90;;;;;;5076397;28;20976;-37
2021/09/23 01:46:39;;;;;;;22.50;18.60;;;13.50;99.90;;;;;;5085872;28;20433;-37
2021/09/23 01:49:05;;;;;;;19.80;16.40;;;13.50;99.90;;;;;;5087983;28;20227;-37
2021/09/23 01:51:30;;;;;;;18.13;15.00;;;13.50;99.90;;;;;;5087769;28;20517;-37
2021/09/23 01:53:56;;;;;;;19.30;17.20;;;13.50;99.90;;;;;;5088376;28;20203;-38
2021/09/23 01:56:22;;;;;;;20.40;15.70;;;13.50;99.90;;;;;;5088506;28;20707;-37
2021/09/23 01:58:47;;;;;;;18.83;16.00;;;13.60;99.90;;;;;;5080468;28;20198;-37
2021/09/23 02:01:13;;;;;;;22.00;16.90;;;13.60;99.90;;;;;;5081312;28;20184;-37
2021/09/23 02:03:39;;;;;;;18.20;14.90;;;13.60;99.90;;;;;;5088505;28;20229;-36
2021/09/23 02:06:05;;;;;;;20.20;16.37;;;13.60;99.90;;;;;;5088327;28;20189;-37
2021/09/23 02:08:32;;;;;;;20.33;15.83;;;13.60;99.90;;;;;;5088324;28;20735;-37
2021/09/23 02:10:57;;;;;;;17.87;14.97;;;13.60;99.90;;;;;;5087266;28;20464;-36
2021/09/23 02:13:23;;;;;;;20.90;17.10;;;13.60;99.90;;;;;;5082689;28;20540;-37
2021/09/23 02:15:49;;;;;;;19.80;16.70;;;13.60;99.90;;;;;;5082454;28;20465;-37
2021/09/23 02:18:15;;;;;;;20.50;16.37;;;13.50;99.90;;;;;;5088408;28;20180;-37
2021/09/23 02:20:40;;;;;;;20.87;16.30;;;13.50;99.90;;;;;;5087780;28;20427;-37
2021/09/23 02:23:06;;;;;;;18.97;16.70;;;13.50;99.90;;;;;;5088057;28;20674;-37
2021/09/23 02:25:32;;;;;;;17.10;15.10;;;13.50;99.90;;;;;;5087681;28;20693;-37
2021/09/23 02:27:58;;;;;;;20.30;16.07;;;13.50;99.90;;;;;;5086707;28;20437;-37
2021/09/23 02:30:24;;;;;;;16.23;14.03;;;13.40;99.90;;;;;;5081694;28;20211;-37
2021/09/23 02:32:50;;;;;;;14.90;12.77;;;13.40;99.90;;;;;;5087898;28;20757;-37
2021/09/23 02:35:17;;;;;;;15.90;12.90;;;13.40;99.90;;;;;;5087529;28;20458;-37
2021/09/23 02:37:43;;;;;;;17.60;13.10;;;13.50;99.90;;;;;;5087815;28;20444;-37
2021/09/23 02:40:09;;;;;;;18.30;13.33;;;13.50;99.90;;;;;;5087036;28;20870;-36
2021/09/23 02:42:36;;;;;;;18.10;13.50;;;13.50;99.90;;;;;;5087873;28;20747;-37
2021/09/23 02:45:03;;;;;;;14.97;12.97;;;13.50;99.90;;;;;;5078454;28;20445;-37
2021/09/23 02:47:29;;;;;;;14.83;12.77;;;13.50;99.90;;;;;;5087442;28;20414;-37
2021/09/23 02:49:54;;;;;;;16.63;12.70;;;13.50;99.90;;;;;;5086950;28;20422;-37
2021/09/23 02:52:20;;;;;;;17.40;12.30;;;13.50;99.90;;;;;;5086388;28;20239;-36
2021/09/23 02:54:46;;;;;;;15.07;11.60;;;13.40;99.90;;;;;;5087737;28;20253;-37
2021/09/23 02:57:12;;;;;;;16.97;13.10;;;13.40;99.90;;;;;;5086948;28;20216;-37
2021/09/23 02:59:38;;;;;;;14.07;12.20;;;13.50;99.90;;;;;;5075474;28;20189;-37
2021/09/23 03:02:04;;;;;;;14.97;13.10;;;13.40;99.90;;;;;;5086979;28;20667;-37
2021/09/23 03:04:29;;;;;;;14.27;11.90;;;13.40;99.90;;;;;;5087552;28;20456;-37
2021/09/23 03:06:55;;;;;;;13.43;12.03;;;13.40;99.90;;;;;;5087061;28;20195;-37
2021/09/23 03:09:21;;;;;;;14.20;12.27;;;13.30;99.90;;;;;;5086753;28;20295;-37
2021/09/23 03:11:46;;;;;;;15.40;12.40;;;13.30;99.90;;;;;;5087121;28;20188;-36
2021/09/23 03:14:12;;;;;;;14.30;12.23;;;13.30;99.90;;;;;;5079143;28;20189;-36
2021/09/23 03:16:38;;;;;;;14.93;11.30;;;13.30;99.90;;;;;;5085171;28;20208;-37
2021/09/23 03:19:03;;;;;;;15.03;11.80;;;13.30;99.90;;;;;;5086477;28;20189;-37
2021/09/23 03:21:29;;;;;;;15.80;11.70;;;13.40;99.90;;;;;;5087073;28;20237;-37
2021/09/23 03:23:55;;;;;;;15.20;12.70;;;13.40;99.90;;;;;;5086752;28;20434;-37
2021/09/23 03:26:21;;;;;;;13.00;11.37;;;13.40;99.90;;;;;;5087003;28;20437;-37
2021/09/23 03:28:46;;;;;;;13.10;10.50;;;13.40;99.90;;;;;;5083621;28;20328;-37
2021/09/23 03:31:13;;;;;;;12.70;10.80;;;13.50;99.90;;;;;;5072298;28;20702;-37
2021/09/23 03:33:38;;;;;;;14.37;12.47;;;13.50;99.90;;;;;;5086397;28;20180;-37
2021/09/23 03:36:05;;;;;;;14.90;11.67;;;13.50;99.90;;;;;;5086674;28;20867;-37
2021/09/23 03:38:30;;;;;;;16.60;12.20;;;13.60;99.90;;;;;;5086109;28;20177;-37
2021/09/23 03:40:56;;;;;;;14.53;12.30;;;13.60;99.90;;;;;;5085839;28;20808;-37
2021/09/23 03:43:22;;;;;;;13.17;11.60;;;13.60;99.90;;;;;;5086674;28;20211;-37
2021/09/23 03:45:49;;;;;;;12.40;10.43;;;13.60;99.90;;;;;;5074475;28;20529;-37
2021/09/23 03:48:16;;;;;;;13.90;12.40;;;13.60;99.90;;;;;;5086317;28;20188;-37
2021/09/23 03:50:42;;;;;;;12.23;10.93;;;13.60;99.90;;;;;;5086107;28;20438;-36
2021/09/23 03:53:07;;;;;;;15.63;11.90;;;13.60;99.90;;;;;;5085397;28;20528;-37
2021/09/23 03:55:33;;;;;;;13.90;11.57;;;13.60;99.90;;;;;;5086068;28;20341;-36
2021/09/23 03:57:59;;;;;;;12.63;11.20;;;13.60;99.90;;;;;;5086616;28;20187;-36
2021/09/23 04:00:25;;;;;;;12.93;11.17;;;13.60;99.90;;;;;;5074055;28;20431;-37
2021/09/23 04:02:52;;;;;;;12.40;11.10;;;13.60;99.90;;;;;;5085049;28;20231;-37
2021/09/23 04:05:18;;;;;;;12.97;11.33;;;13.60;99.90;;;;;;5086267;28;20426;-36
2021/09/23 04:07:44;;;;;;;15.53;12.40;;;13.60;99.90;;;;;;5085875;28;20441;-36
2021/09/23 04:10:10;;;;;;;16.83;12.63;;;13.60;99.90;;;;;;5085096;28;20422;-37
2021/09/23 04:12:37;;;;;;;13.67;11.63;;;13.60;99.90;;;;;;5086156;28;20184;-37
2021/09/23 04:15:04;;;;;;;12.30;10.73;;;13.50;99.90;;;;;;5080103;28;20667;-36
2021/09/23 04:17:30;;;;;;;13.83;12.33;;;13.50;99.90;;;;;;5081742;28;20431;-37
2021/09/23 04:19:55;;;;;;;14.03;12.53;;;13.40;99.90;;;;;;5085402;28;20433;-37
2021/09/23 04:22:21;;;;;;;17.47;12.70;;;13.40;99.90;;;;;;5085778;28;20228;-37
2021/09/23 04:24:47;;;;;;;13.63;12.20;;;13.40;99.90;;;;;;5085901;28;20642;-37
2021/09/23 04:27:13;;;;;;;13.97;12.30;;;13.40;99.90;;;;;;5086003;28;20283;-37
2021/09/23 04:29:43;;;;;;;12.70;11.40;;;13.40;99.90;;;;;;5080243;28;20203;-37
2021/09/23 04:32:09;;;;;;;14.30;12.37;;;13.40;99.90;;;;;;5081390;28;20188;-36
2021/09/23 04:34:34;;;;;;;12.47;11.03;;;13.40;99.90;;;;;;5085840;28;20834;-38
2021/09/23 04:37:00;;;;;;;13.93;11.50;;;13.40;99.90;;;;;;5085265;28;20458;-37
2021/09/23 04:39:25;;;;;;;13.73;12.23;;;13.40;99.90;;;;;;5085388;28;20196;-37
2021/09/23 04:41:51;;;;;;;13.20;11.70;;;13.40;99.90;;;;;;5079700;28;20276;-37
2021/09/23 04:44:17;;;;;;;13.07;10.67;;;13.30;99.90;;;;;;5079050;28;20184;-37
2021/09/23 04:46:43;;;;;;;14.30;12.33;;;13.30;99.90;;;;;;5073383;28;20192;-37
2021/09/23 04:49:08;;;;;;;12.30;11.10;;;13.40;99.90;;;;;;5083670;28;20191;-36
2021/09/23 04:51:34;;;;;;;12.40;9.90;;;13.40;99.90;;;;;;5088598;28;20191;-37
2021/09/23 04:54:00;;;;;;;13.50;10.70;;;13.40;99.90;;;;;;5088342;28;20188;-37
2021/09/23 04:56:26;;;;;;;13.07;11.00;;;13.40;99.90;;;;;;5089587;28;20297;-36
2021/09/23 04:58:52;;;;;;;12.57;10.60;;;13.40;99.90;;;;;;5089373;28;20450;-37
2021/09/23 05:01:17;;;;;;;13.37;10.50;;;13.40;99.90;;;;;;5081231;28;20203;-36
2021/09/23 05:03:43;;;;;;;11.83;10.23;;;13.40;99.90;;;;;;5090111;28;20188;-36
2021/09/23 05:06:09;;;;;;;12.07;10.57;;;13.40;99.90;;;;;;5089204;28;20188;-37
2021/09/23 05:08:35;;;;;;;14.73;11.07;;;13.40;99.90;;;;;;5087935;28;20200;-37
2021/09/23 05:11:01;;;;;;;11.53;9.80;;;13.40;99.90;;;;;;5087655;28;20428;-37
2021/09/23 05:13:27;;;;;;;13.00;10.50;;;13.40;99.90;;;;;;5083241;28;20663;-37
2021/09/23 05:15:52;;;;;;;14.63;9.93;;;13.40;99.90;;;;;;5076422;28;20471;-37
2021/09/23 05:18:18;;;;;;;12.40;10.90;;;13.50;99.90;;;;;;5087754;28;20422;-37
2021/09/23 05:20:44;;;;;;;12.40;10.77;;;13.50;99.90;;;;;;5088536;28;20686;-37
2021/09/23 05:23:09;;;;;;;14.50;10.93;;;13.50;99.90;;;;;;5088873;28;20601;-37
2021/09/23 05:25:36;;;;;;;12.97;10.77;;;13.40;99.90;;;;;;5088677;28;20271;-37
2021/09/23 05:28:02;;;;;;;12.73;10.40;;;13.40;99.90;;;;;;5087880;28;20180;-36
2021/09/23 05:30:28;;;;;;;12.53;10.53;;;13.40;99.90;;;;;;5077339;28;20831;-38
2021/09/23 05:32:54;;;;;;;14.53;10.93;;;13.30;99.90;;;;;;5085327;28;20483;-36
2021/09/23 05:35:19;;;;;;;13.57;10.67;;;13.40;99.90;;;;;;5088717;28;20718;-37
2021/09/23 05:37:46;;;;;;;12.80;9.73;;;13.40;99.90;;;;;;5088481;28;20367;-37
2021/09/23 05:40:12;;;;;;;11.20;10.00;;;13.40;99.90;;;;;;5087572;28;20813;-37
2021/09/23 05:42:38;;;;;;;10.57;9.47;;;13.30;99.90;;;;;;5088367;28;20971;-37
2021/09/23 05:45:07;;;;;;;12.47;10.80;;;13.30;99.90;;;;;;5084084;28;20420;-37
2021/09/23 05:47:34;;;;;;;13.03;9.90;;;13.30;99.90;;;;;;5078762;28;20188;-36
2021/09/23 05:50:00;;;;;;;11.73;9.10;;;13.30;99.90;;;;;;5079025;28;20509;-37
2021/09/23 05:52:26;;;;;;;11.23;10.13;;;13.30;99.90;;;;;;5087583;28;20803;-36
2021/09/23 05:54:52;;;;;;;10.50;9.37;;;13.30;99.90;;;;;;5088887;28;20985;-37
2021/09/23 05:57:23;;;;;;;10.00;8.47;;;13.40;99.90;;;;;;5085715;28;20520;-37
2021/09/23 05:59:50;;;;;;;11.50;9.10;;;13.40;99.90;;;;;;5085714;28;20192;-37
2021/09/23 06:02:16;;;;;;;10.30;8.97;;;13.50;99.90;;;;;;5073771;28;20450;-37
2021/09/23 06:04:41;;;;;;;9.90;8.40;;;13.60;99.90;;;;;;5086883;28;20465;-37
2021/09/23 06:07:07;;;;;;;11.60;8.90;;;13.60;99.90;;;;;;5088323;28;20249;-37
2021/09/23 06:09:33;;;;;;;9.33;8.17;;;13.70;99.90;;;;;;5087390;28;20251;-37
2021/09/23 06:11:58;;;;;;;9.63;8.27;;;13.70;99.90;;;;;;5086970;28;20188;-37
2021/09/23 06:14:24;;;;;;;10.57;8.80;;;13.80;99.90;;;;;;5086760;28;20195;-37
2021/09/23 06:16:50;;;;;;;14.63;8.80;;;13.90;99.90;;;;;;5080232;28;20227;-37
2021/09/23 06:19:16;;;;;;;14.37;9.63;;;14.00;99.90;;;;;;5087079;28;20237;-37
2021/09/23 06:21:41;;;;;;;13.33;8.93;;;14.00;99.90;;;;;;5088064;28;20820;-38
2021/09/23 06:24:07;;;;;;;9.60;8.17;;;14.10;99.90;;;;;;5088056;28;20188;-38
2021/09/23 06:26:33;;;;;;;13.63;9.20;;;14.10;99.90;;;;;;5087684;28;20197;-37
2021/09/23 06:28:59;;;;;;;12.00;9.67;;;14.20;99.90;;;;;;5084683;28;20440;-37
2021/09/23 06:31:25;;;;;;;9.50;8.60;;;14.20;99.90;;;;;;5084064;28;20443;-37
2021/09/23 06:33:51;;;;;;;9.63;8.47;;;14.20;99.90;;;;;;5086905;28;20476;-37
2021/09/23 06:36:17;;;;;;;8.90;7.97;;;14.20;99.90;;;;;;5085647;28;20561;-37
2021/09/23 06:38:43;;;;;;;10.90;9.10;;;14.30;99.90;;;;;;5087874;28;20533;-38
2021/09/23 06:41:12;;;;;;;9.07;8.03;;;14.30;99.90;;;;;;5073760;28;20194;-37
2021/09/23 06:43:39;;;;;;;10.80;8.20;;;14.30;99.90;;;;;;5087713;28;20208;-37
2021/09/23 06:46:04;;;;;;;11.30;9.20;;;14.30;99.90;;;;;;5082989;28;20879;-37
2021/09/23 06:48:30;;;;;;;9.63;8.27;;;14.30;99.90;;;;;;5083198;28;20505;-36
2021/09/23 06:50:55;;;;;;;11.97;7.50;;;14.30;99.90;;;;;;5086695;28;20431;-37
2021/09/23 06:53:21;;;;;;;9.20;8.07;;;14.40;99.90;;;;;;5086425;28;20279;-37
2021/09/23 06:55:47;;;;;;;11.83;8.27;;;14.40;99.90;;;;;;5087402;28;20235;-37
2021/09/23 06:58:13;;;;;;;10.83;7.90;;;14.50;99.90;;;;;;5087073;28;20200;-36
2021/09/23 07:00:40;;;;;;;9.60;8.10;;;14.60;99.90;;;;;;5081900;28;20439;-37
2021/09/23 07:03:06;;;;;;;9.60;7.60;;;14.60;99.90;;;;;;5080593;28;20181;-37
2021/09/23 07:05:31;;;;;;;10.37;7.73;;;14.60;99.90;;;;;;5086120;28;20490;-37
2021/09/23 07:07:57;;;;;;;10.63;8.60;;;14.70;99.90;;;;;;5086734;28;20210;-37
2021/09/23 07:10:23;;;;;;;10.83;8.70;;;14.70;99.90;;;;;;5064919;28;20217;-37
2021/09/23 07:12:48;;;;;;;10.60;8.50;;;14.60;99.90;;;;;;5078840;28;21157;-37
2021/09/23 07:15:15;;;;;;;9.87;8.73;;;14.70;99.90;;;;;;5079690;28;20587;-36
2021/09/23 07:17:40;;;;;;;8.43;7.53;;;14.80;99.90;;;;;;5079312;28;20177;-37
2021/09/23 07:20:08;;;;;;;9.37;8.10;;;14.90;99.90;;;;;;5086279;28;20474;-37
2021/09/23 07:22:33;;;;;;;8.90;7.20;;;15.00;99.90;;;;;;5086739;28;20454;-37
2021/09/23 07:24:59;;;;;;;8.73;7.83;;;15.10;99.90;;;;;;5086716;28;20450;-36
2021/09/23 07:27:25;;;;;;;10.63;8.90;;;15.20;99.90;;;;;;5085510;28;20536;-37
2021/09/23 07:29:51;;;;;;;9.50;8.10;;;15.30;99.90;;;;;;5085850;28;20230;-37
2021/09/23 07:32:17;;;;;;;9.73;7.30;;;15.40;99.90;;;;;;5077352;28;20552;-37
2021/09/23 07:34:42;;;;;;;10.40;8.50;;;15.50;99.90;;;;;;5086375;28;20196;-37
2021/09/23 07:37:09;;;;;;;10.00;7.50;;;15.60;99.90;;;;;;5084879;28;20462;-37
2021/09/23 07:39:35;;;;;;;9.67;6.90;;;15.70;99.90;;;;;;5085593;28;20222;-37
2021/09/23 07:42:02;;;;;;;9.00;7.50;;;15.80;99.90;;;;;;5086519;28;20414;-37
2021/09/23 07:44:28;;;;;;;14.83;7.67;;;15.90;99.90;;;;;;5086209;28;20501;-37
2021/09/23 07:46:59;;;;;;;9.33;7.77;;;16.00;99.90;;;;;;5076428;28;20876;-37
2021/09/23 07:49:25;;;;;;;8.00;7.20;;;16.10;99.90;;;;;;5084765;28;20430;-37
2021/09/23 07:51:51;;;;;;;8.13;7.33;;;16.20;99.90;;;;;;5085346;28;20502;-37
2021/09/23 07:54:17;;;;;;;10.67;8.00;;;16.20;99.90;;;;;;5086106;28;20857;-37
2021/09/23 07:56:44;;;;;;;11.53;7.37;;;16.30;99.90;;;;;;5086321;28;20556;-37
2021/09/23 07:59:09;;;;;;;10.17;7.90;;;16.40;99.90;;;;;;5085366;28;20193;-37
2021/09/23 08:01:35;;;;;;;11.07;8.70;;;16.50;99.90;;;;;;5079768;28;20489;-37
2021/09/23 08:04:01;;;;;;;10.43;8.83;;;16.60;99.90;;;;;;5082864;28;20189;-36
2021/09/23 08:06:26;;;;;;;10.00;8.10;;;16.60;99.90;;;;;;5085357;28;20192;-36
2021/09/23 08:08:52;;;;;;;9.40;8.03;;;16.60;99.90;;;;;;5085782;28;20302;-37
2021/09/23 08:11:18;;;;;;;10.97;9.13;;;16.50;99.90;;;;;;5084675;28;20188;-36
2021/09/23 08:13:44;;;;;;;9.60;8.60;;;16.50;99.90;;;;;;5085901;28;20647;-37
2021/09/23 08:16:09;;;;;;;9.60;8.23;;;16.50;99.90;;;;;;5083685;28;20208;-37
2021/09/23 08:18:35;;;;;;;9.10;8.20;;;16.50;99.90;;;;;;5075695;28;20196;-37
2021/09/23 08:21:01;;;;;;;11.43;8.83;;;16.60;99.90;;;;;;5085433;28;20192;-37
2021/09/23 08:23:27;;;;;;;10.60;8.90;;;16.50;99.90;;;;;;5086023;28;20647;-37
2021/09/23 08:25:52;;;;;;;9.90;8.90;;;16.50;99.90;;;;;;5085614;28;20306;-37
2021/09/23 08:28:23;;;;;;;11.30;8.60;;;16.50;99.90;;;;;;5085677;28;20207;-37
2021/09/23 08:30:49;;;;;;;8.93;7.10;;;16.60;99.90;;;;;;5083917;28;20401;-37
2021/09/23 08:33:14;;;;;;;11.20;8.77;;;16.60;99.90;;;;;;5077528;28;21092;-38
2021/09/23 08:35:40;;;;;;;8.67;7.80;;;16.60;99.90;;;;;;5085505;28;20469;-37
2021/09/23 08:38:06;;;;;;;9.13;7.80;;;16.70;99.90;;;;;;5086064;28;20196;-37
2021/09/23 08:40:32;;;;;;;9.03;7.47;;;16.80;99.90;;;;;;5083719;28;20184;-37
2021/09/23 08:42:57;;;;;;;12.13;8.67;;;16.90;99.90;;;;;;5084256;28;20188;-37
2021/09/23 08:45:23;;;;;;;9.87;7.87;;;17.00;99.90;;;;;;5085808;28;20802;-37
2021/09/23 08:47:49;;;;;;;10.27;8.00;;;17.00;99.90;;;;;;5076155;28;20197;-37
2021/09/23 08:50:16;;;;;;;13.77;7.53;;;17.00;99.90;;;;;;5079574;28;20187;-37
2021/09/23 08:52:43;;;;;;;9.40;8.20;;;17.10;99.90;;;;;;5084392;28;20458;-37
2021/09/23 08:55:21;;;;;;;9.43;7.80;;;17.10;99.90;;;;;;5085611;28;20449;-37
2021/09/23 08:57:47;;;;;;;9.20;7.50;;;17.10;99.90;;;;;;5085453;28;20429;-38
2021/09/23 09:00:13;;;;;;;10.27;7.97;;;17.20;99.90;;;;;;5085189;28;20411;-37
2021/09/23 09:02:39;;;;;;;11.03;7.40;;;17.30;99.90;;;;;;5077069;28;20197;-37
2021/09/23 09:05:05;;;;;;;9.23;7.30;;;17.30;99.90;;;;;;5082091;28;20464;-37
2021/09/23 09:07:31;;;;;;;9.37;8.10;;;17.40;99.90;;;;;;5085294;28;20184;-37
2021/09/23 09:10:15;;;;;;;7.90;7.00;;;17.50;99.90;;;;;;5084826;28;20792;-37
2021/09/23 09:12:45;;;;;;;10.40;6.67;;;17.50;99.90;;;;;;5085346;28;20569;-37
2021/09/23 09:15:11;;;;;;;9.50;7.00;;;17.60;99.90;;;;;;5085730;28;20445;-39
2021/09/23 09:17:38;;;;;;;8.60;7.00;;;17.70;99.90;;;;;;5077808;28;20640;-37
2021/09/23 09:20:06;;;;;;;7.33;6.00;;;17.70;99.90;;;;;;5076809;28;20415;-37
2021/09/23 09:22:34;;;;;;;9.90;6.80;;;17.80;99.90;;;;;;5085188;28;20419;-38
2021/09/23 09:25:04;;;;;;;8.23;6.43;;;18.00;99.90;;;;;;5085670;28;20767;-37
2021/09/23 09:27:33;;;;;;;8.57;7.00;;;18.00;99.90;;;;;;5085505;28;20411;-37
2021/09/23 09:30:05;;;;;;;8.10;7.07;;;18.10;99.90;;;;;;5085224;28;20670;-37
2021/09/23 09:32:48;;;;;;;6.53;5.53;;;18.30;99.90;;;;;;5080343;28;20435;-37
2021/09/23 09:35:34;;;;;;;9.10;6.77;;;18.40;99.90;;;;;;5079273;28;20430;-37
2021/09/23 09:38:03;;;;;;;8.10;5.90;;;18.50;99.90;;;;;;5083138;28;20483;-37
2021/09/23 09:40:34;;;;;;;6.60;5.70;;;18.60;99.90;;;;;;5088296;28;20988;-37
2021/09/23 09:43:06;;;;;;;5.93;5.33;;;18.70;99.90;;;;;;5088991;28;20418;-37
2021/09/23 09:45:33;;;;;;;8.73;5.93;;;18.80;99.90;;;;;;5088512;28;20847;-37
2021/09/23 09:47:59;;;;;;;6.20;5.60;;;18.90;99.90;;;;;;5081187;28;20426;-37
2021/09/23 09:50:26;;;;;;;7.67;5.50;;;19.00;99.90;;;;;;5085034;28;20442;-37
2021/09/23 09:52:58;;;;;;;12.23;5.60;;;19.10;99.90;;;;;;5087657;28;20649;-38
2021/09/23 09:55:30;;;;;;;6.13;5.50;;;19.10;99.90;;;;;;5088906;28;20418;-37
2021/09/23 09:57:56;;;;;;;5.90;5.30;;;19.10;99.90;;;;;;5088260;28;20456;-37
2021/09/23 10:00:24;;;;;;;5.83;5.33;;;19.20;99.90;;;;;;5087946;28;20476;-37
2021/09/23 10:02:49;;;;;;;7.30;6.60;;;19.30;99.90;;;;;;5084722;28;20430;-37
2021/09/23 10:05:18;;;;;;;6.50;5.90;;;19.40;99.90;;;;;;5084469;28;20415;-37
2021/09/23 10:07:47;;;;;;;6.47;5.20;;;19.40;99.90;;;;;;5088316;28;20201;-37
2021/09/23 10:10:15;;;;;;;6.60;5.63;;;19.50;99.90;;;;;;5087695;28;20422;-37
2021/09/23 10:12:42;;;;;;;6.23;5.63;;;19.60;99.90;;;;;;5088120;28;20418;-37
2021/09/23 10:15:16;;;;;;;7.33;6.63;;;19.60;99.90;;;;;;5088233;28;20489;-38
2021/09/23 10:17:44;;;;;;;8.03;6.33;;;19.70;99.90;;;;;;5088346;28;20522;-37
2021/09/23 10:20:11;;;;;;;7.00;6.30;;;19.70;99.90;;;;;;5074712;28;20852;-37
2021/09/23 10:22:37;;;;;;;8.03;6.63;;;19.60;99.90;;;;;;5087688;28;20418;-37
2021/09/23 10:25:06;;;;;;;9.80;6.40;;;19.50;99.90;;;;;;5087684;28;20468;-37
2021/09/23 10:30:18;;;;;;;6.87;6.10;;;19.50;99.90;;;;;;5087117;28;20449;-37
2021/09/23 10:32:45;;;;;;;6.90;5.87;;;19.50;99.90;;;;;;5087688;28;20422;-37
2021/09/23 10:35:22;;;;;;;6.97;5.03;;;19.50;99.90;;;;;;5074887;28;20466;-38
2021/09/23 10:37:53;;;;;;;6.83;5.40;;;19.60;99.90;;;;;;5087665;28;20475;-40
2021/09/23 10:40:19;;;;;;;8.20;5.73;;;19.70;99.90;;;;;;5087175;28;20544;-37
2021/09/23 10:42:48;;;;;;;7.97;5.33;;;19.70;99.90;;;;;;5087435;28;20767;-38
2021/09/23 10:45:17;;;;;;;5.83;4.60;;;19.70;99.90;;;;;;5087642;28;20477;-37
2021/09/23 10:47:46;;;;;;;5.27;4.77;;;19.70;99.90;;;;;;5085585;28;20441;-37
2021/09/23 10:50:13;;;;;;;7.40;4.90;;;19.80;99.90;;;;;;5076591;28;20521;-38
2021/09/23 10:52:41;;;;;;;5.93;5.33;;;19.80;99.90;;;;;;5086313;28;20953;-37
2021/09/23 10:55:08;;;;;;;5.17;4.60;;;19.80;99.90;;;;;;5087696;28;20438;-37
2021/09/23 10:57:35;;;;;;;6.73;5.80;;;19.90;99.90;;;;;;5085738;28;20550;-37
2021/09/23 11:00:05;;;;;;;5.10;4.60;;;19.90;99.90;;;;;;5086674;28;20423;-37
2021/09/23 11:02:32;;;;;;;5.70;5.13;;;20.00;99.90;;;;;;5086773;28;20437;-38
2021/09/23 11:05:01;;;;;;;7.30;5.60;;;20.00;99.90;;;;;;5075062;28;20430;-38
2021/09/23 11:07:31;;;;;;;5.87;5.23;;;20.10;99.90;;;;;;5087235;28;20801;-37
2021/09/23 11:10:09;;;;;;;5.70;5.20;;;20.20;99.90;;;;;;5085463;28;20470;-37
2021/09/23 11:12:36;;;;;;;9.23;6.17;;;20.30;99.90;;;;;;5087064;28;20430;-37
2021/09/23 11:15:03;;;;;;;7.23;5.87;;;20.30;99.90;;;;;;5086719;28;20532;-38
2021/09/23 11:17:30;;;;;;;7.70;6.30;;;20.30;99.90;;;;;;5086802;28;20473;-37
2021/09/23 11:19:59;;;;;;;7.50;6.10;;;20.40;99.90;;;;;;5076339;28;20430;-38
2021/09/23 11:22:39;;;;;;;8.90;5.80;;;20.40;99.90;;;;;;5086740;28;20422;-37
2021/09/23 11:25:14;;;;;;;7.00;6.30;;;20.40;99.90;;;;;;5074636;28;20434;-38
2021/09/23 11:27:42;;;;;;;9.47;7.13;;;20.40;99.90;;;;;;5086839;28;20439;-39
2021/09/23 11:30:11;;;;;;;9.37;7.27;;;20.40;99.90;;;;;;5086225;28;20625;-37
2021/09/23 11:32:58;;;;;;;10.93;6.00;;;20.50;99.90;;;;;;5086414;28;20441;-37
2021/09/23 11:35:30;;;;;;;6.20;5.60;;;20.50;99.90;;;;;;5077846;28;20430;-37
2021/09/23 11:37:58;;;;;;;11.30;6.57;;;20.50;99.90;;;;;;5085987;28;20427;-38
2021/09/23 11:40:32;;;;;;;7.17;6.43;;;20.60;99.90;;;;;;5086184;28;20846;-37
2021/09/23 11:43:00;;;;;;;6.70;5.20;;;20.50;99.90;;;;;;5086488;28;20414;-38
2021/09/23 11:45:28;;;;;;;7.33;5.70;;;20.60;99.90;;;;;;5086549;28;20427;-37
2021/09/23 11:47:56;;;;;;;6.87;5.90;;;20.70;99.90;;;;;;5086565;28;20939;-38
2021/09/23 11:50:23;;;;;;;8.47;6.00;;;20.70;99.90;;;;;;5073025;28;20833;-37
2021/09/23 11:52:53;;;;;;;8.20;5.87;;;20.70;99.90;;;;;;5084760;28;20523;-38
2021/09/23 11:55:19;;;;;;;6.53;5.30;;;20.80;99.90;;;;;;5082077;28;20430;-38
2021/09/23 11:57:45;;;;;;;6.03;5.43;;;20.90;99.90;;;;;;5086415;28;20501;-38
2021/09/23 12:00:11;;;;;;;6.30;5.70;;;20.90;99.90;;;;;;5084826;28;20643;-37
2021/09/23 12:02:36;;;;;;;6.77;6.07;;;21.00;99.90;;;;;;5086515;28;20199;-38
2021/09/23 12:05:03;;;;;;;6.53;5.77;;;20.90;99.90;;;;;;5075709;28;20824;-39
2021/09/23 12:07:41;;;;;;;7.37;5.00;;;20.90;99.90;;;;;;5081729;28;20687;-37
2021/09/23 12:10:14;;;;;;;6.03;5.43;;;21.00;99.90;;;;;;5083413;28;20428;-37
2021/09/23 12:12:39;;;;;;;9.40;6.20;;;21.10;99.90;;;;;;5086229;28;20438;-38
2021/09/23 12:15:05;;;;;;;7.03;5.87;;;21.00;99.60;;;;;;5080296;28;20626;-38
2021/09/23 12:17:31;;;;;;;8.93;6.40;;;21.00;99.90;;;;;;5078036;28;20268;-38
2021/09/23 12:19:58;;;;;;;7.83;6.20;;;21.10;99.90;;;;;;5078783;28;20434;-37
2021/09/23 12:22:42;;;;;;;10.20;5.90;;;21.20;99.90;;;;;;5081148;28;20189;-38
2021/09/23 12:25:13;;;;;;;9.70;6.07;;;21.30;99.90;;;;;;5085905;28;20449;-37
2021/09/23 12:27:39;;;;;;;9.47;6.30;;;21.30;99.90;;;;;;5086291;28;20423;-37
2021/09/23 12:30:05;;;;;;;7.10;5.40;;;21.30;99.90;;;;;;5084946;28;20426;-37
2021/09/23 12:32:34;;;;;;;6.83;5.60;;;21.20;99.90;;;;;;5086046;28;20418;-37
2021/09/23 12:35:15;;;;;;;6.60;5.57;;;21.30;99.90;;;;;;5080050;28;20434;-37
2021/09/23 12:37:41;;;;;;;7.50;6.80;;;21.30;99.90;;;;;;5083993;28;20425;-38
2021/09/23 12:40:07;;;;;;;7.87;6.47;;;21.20;99.90;;;;;;5085285;28;20475;-37